sensor_id;sensor_type;location;lat;lon;timestamp;pressure;altitude;pressure_sealevel;temperature;humidity
18201;BME280;9226;47.858;9.594;2023-04-01T00:00:15;94155.50;;;8.28;77.31
18201;BME280;9226;47.858;9.594;2023-04-01T00:02:41;94149.00;;;8.23;76.92
18201;BME280;9226;47.858;9.594;2023-04-01T00:05:07;94151.50;;;8.24;77.18
18201;BME280;9226;47.858;9.594;2023-04-01T00:07:32;94162.88;;;8.25;77.09
18201;BME280;9226;47.858;9.594;2023-04-01T00:09:58;94163.28;;;8.30;77.76
18201;BME280;9226;47.858;9.594;2023-04-01T00:12:23;94158.34;;;8.07;79.45
18201;BME280;9226;47.858;9.594;2023-04-01T00:14:50;94155.16;;;8.04;79.04
18201;BME280;9226;47.858;9.594;2023-04-01T00:17:16;94163.34;;;8.01;79.28
18201;BME280;9226;47.858;9.594;2023-04-01T00:19:41;94170.59;;;7.99;79.43
18201;BME280;9226;47.858;9.594;2023-04-01T00:22:07;94161.25;;;8.04;79.15
18201;BME280;9226;47.858;9.594;2023-04-01T00:24:34;94170.00;;;7.95;79.59
18201;BME280;9226;47.858;9.594;2023-04-01T00:26:59;94171.00;;;8.04;79.14
18201;BME280;9226;47.858;9.594;2023-04-01T00:29:25;94152.38;;;8.05;79.41
18201;BME280;9226;47.858;9.594;2023-04-01T00:31:55;94160.56;;;8.02;79.26
18201;BME280;9226;47.858;9.594;2023-04-01T00:34:20;94166.41;;;7.96;79.46
18201;BME280;9226;47.858;9.594;2023-04-01T00:36:46;94165.56;;;8.05;79.24
18201;BME280;9226;47.858;9.594;2023-04-01T00:39:11;94165.84;;;8.02;79.72
18201;BME280;9226;47.858;9.594;2023-04-01T00:41:37;94167.09;;;7.98;79.76
18201;BME280;9226;47.858;9.594;2023-04-01T00:44:21;94171.94;;;8.03;79.65
18201;BME280;9226;47.858;9.594;2023-04-01T00:46:47;94166.41;;;7.86;80.98
18201;BME280;9226;47.858;9.594;2023-04-01T00:49:14;94153.22;;;7.86;81.00
18201;BME280;9226;47.858;9.594;2023-04-01T00:51:42;94156.41;;;7.80;81.10
18201;BME280;9226;47.858;9.594;2023-04-01T00:54:08;94164.19;;;7.72;82.11
18201;BME280;9226;47.858;9.594;2023-04-01T00:56:37;94157.25;;;7.71;81.40
18201;BME280;9226;47.858;9.594;2023-04-01T00:59:14;94169.44;;;7.62;82.56
18201;BME280;9226;47.858;9.594;2023-04-01T01:01:41;94158.88;;;7.62;82.11
18201;BME280;9226;47.858;9.594;2023-04-01T01:04:23;94167.66;;;7.53;81.87
18201;BME280;9226;47.858;9.594;2023-04-01T01:06:57;94171.94;;;7.64;81.78
18201;BME280;9226;47.858;9.594;2023-04-01T01:13:16;94178.50;;;7.50;82.62
18201;BME280;9226;47.858;9.594;2023-04-01T01:31:15;94159.44;;;7.36;82.84
18201;BME280;9226;47.858;9.594;2023-04-01T01:36:30;94156.94;;;7.35;83.71
18201;BME280;9226;47.858;9.594;2023-04-01T01:38:57;94160.97;;;7.39;83.27
18201;BME280;9226;47.858;9.594;2023-04-01T01:41:25;94156.66;;;7.38;83.74
18201;BME280;9226;47.858;9.594;2023-04-01T01:43:53;94156.38;;;7.41;84.04
18201;BME280;9226;47.858;9.594;2023-04-01T01:46:23;94164.16;;;7.52;83.11
18201;BME280;9226;47.858;9.594;2023-04-01T01:48:50;94160.03;;;7.50;83.14
18201;BME280;9226;47.858;9.594;2023-04-01T01:51:18;94145.28;;;7.28;84.93
18201;BME280;9226;47.858;9.594;2023-04-01T01:53:44;94137.16;;;7.10;85.26
18201;BME280;9226;47.858;9.594;2023-04-01T01:56:11;94157.22;;;7.41;83.63
18201;BME280;9226;47.858;9.594;2023-04-01T01:58:54;94149.13;;;7.23;84.95
18201;BME280;9226;47.858;9.594;2023-04-01T02:01:27;94146.50;;;7.33;84.21
18201;BME280;9226;47.858;9.594;2023-04-01T02:03:54;94138.59;;;7.33;83.88
18201;BME280;9226;47.858;9.594;2023-04-01T02:06:26;94129.72;;;7.34;83.76
18201;BME280;9226;47.858;9.594;2023-04-01T02:09:02;94131.69;;;7.32;83.82
18201;BME280;9226;47.858;9.594;2023-04-01T02:11:48;94132.50;;;7.33;84.11
18201;BME280;9226;47.858;9.594;2023-04-01T02:14:20;94120.84;;;7.35;84.03
18201;BME280;9226;47.858;9.594;2023-04-01T02:16:51;94132.91;;;7.28;84.91
18201;BME280;9226;47.858;9.594;2023-04-01T02:19:20;94129.72;;;7.15;86.19
18201;BME280;9226;47.858;9.594;2023-04-01T02:21:54;94124.72;;;7.31;85.11
18201;BME280;9226;47.858;9.594;2023-04-01T02:24:23;94136.69;;;7.35;85.00
18201;BME280;9226;47.858;9.594;2023-04-01T02:26:51;94128.44;;;7.19;86.13
18201;BME280;9226;47.858;9.594;2023-04-01T02:29:19;94135.81;;;7.15;86.78
18201;BME280;9226;47.858;9.594;2023-04-01T02:31:47;94143.88;;;7.23;85.90
18201;BME280;9226;47.858;9.594;2023-04-01T02:34:13;94145.28;;;7.28;86.17
18201;BME280;9226;47.858;9.594;2023-04-01T02:36:38;94144.00;;;7.22;86.52
18201;BME280;9226;47.858;9.594;2023-04-01T02:39:05;94140.28;;;7.24;85.87
18201;BME280;9226;47.858;9.594;2023-04-01T02:41:30;94143.88;;;7.33;85.48
18201;BME280;9226;47.858;9.594;2023-04-01T02:43:56;94140.28;;;7.24;86.28
18201;BME280;9226;47.858;9.594;2023-04-01T02:46:24;94133.03;;;7.17;86.70
18201;BME280;9226;47.858;9.594;2023-04-01T02:48:49;94127.34;;;7.12;86.75
18201;BME280;9226;47.858;9.594;2023-04-01T02:51:15;94135.66;;;7.17;86.66
18201;BME280;9226;47.858;9.594;2023-04-01T02:53:40;94137.03;;;7.11;86.87
18201;BME280;9226;47.858;9.594;2023-04-01T02:56:06;94139.13;;;7.07;86.90
18201;BME280;9226;47.858;9.594;2023-04-01T02:58:31;94124.97;;;7.18;86.50
18201;BME280;9226;47.858;9.594;2023-04-01T03:00:56;94125.53;;;7.22;85.84
18201;BME280;9226;47.858;9.594;2023-04-01T03:03:22;94121.66;;;7.26;85.61
18201;BME280;9226;47.858;9.594;2023-04-01T03:05:47;94121.34;;;7.19;86.25
18201;BME280;9226;47.858;9.594;2023-04-01T03:08:14;94120.53;;;7.29;85.52
18201;BME280;9226;47.858;9.594;2023-04-01T03:10:40;94122.34;;;7.28;85.86
18201;BME280;9226;47.858;9.594;2023-04-01T03:13:05;94119.44;;;7.21;85.54
18201;BME280;9226;47.858;9.594;2023-04-01T03:15:31;94124.72;;;7.21;85.92
18201;BME280;9226;47.858;9.594;2023-04-01T03:17:56;94126.94;;;7.26;85.39
18201;BME280;9226;47.858;9.594;2023-04-01T03:20:22;94131.63;;;7.22;85.37
18201;BME280;9226;47.858;9.594;2023-04-01T03:22:47;94126.63;;;7.19;85.46
18201;BME280;9226;47.858;9.594;2023-04-01T03:25:13;94132.50;;;7.23;85.12
18201;BME280;9226;47.858;9.594;2023-04-01T03:27:38;94123.31;;;7.17;85.45
18201;BME280;9226;47.858;9.594;2023-04-01T03:30:05;94126.09;;;7.16;85.39
18201;BME280;9226;47.858;9.594;2023-04-01T03:32:31;94126.09;;;7.25;85.15
18201;BME280;9226;47.858;9.594;2023-04-01T03:34:56;94136.09;;;7.22;85.56
18201;BME280;9226;47.858;9.594;2023-04-01T03:37:23;94140.53;;;7.21;85.23
18201;BME280;9226;47.858;9.594;2023-04-01T03:39:48;94142.50;;;7.29;85.00
18201;BME280;9226;47.858;9.594;2023-04-01T03:42:14;94135.81;;;7.35;84.88
18201;BME280;9226;47.858;9.594;2023-04-01T03:44:40;94140.28;;;7.34;84.89
18201;BME280;9226;47.858;9.594;2023-04-01T03:47:05;94132.38;;;7.34;84.43
18201;BME280;9226;47.858;9.594;2023-04-01T03:49:31;94134.13;;;7.24;85.21
18201;BME280;9226;47.858;9.594;2023-04-01T03:51:57;94129.03;;;7.32;84.66
18201;BME280;9226;47.858;9.594;2023-04-01T03:54:23;94131.41;;;7.35;84.16
18201;BME280;9226;47.858;9.594;2023-04-01T03:56:48;94134.59;;;7.39;84.13
18201;BME280;9226;47.858;9.594;2023-04-01T03:59:13;94126.66;;;7.29;83.84
18201;BME280;9226;47.858;9.594;2023-04-01T04:01:39;94119.84;;;7.36;83.69
18201;BME280;9226;47.858;9.594;2023-04-01T04:04:05;94124.16;;;7.28;83.68
18201;BME280;9226;47.858;9.594;2023-04-01T04:06:30;94118.03;;;7.27;83.92
18201;BME280;9226;47.858;9.594;2023-04-01T04:08:56;94116.66;;;7.23;83.60
18201;BME280;9226;47.858;9.594;2023-04-01T04:11:22;94114.31;;;7.20;83.86
18201;BME280;9226;47.858;9.594;2023-04-01T04:13:47;94110.53;;;7.13;83.89
18201;BME280;9226;47.858;9.594;2023-04-01T04:16:14;94118.56;;;7.11;84.53
18201;BME280;9226;47.858;9.594;2023-04-01T04:18:40;94120.53;;;7.19;84.38
18201;BME280;9226;47.858;9.594;2023-04-01T04:21:05;94124.13;;;7.18;83.66
18201;BME280;9226;47.858;9.594;2023-04-01T04:23:31;94109.72;;;7.22;83.20
18201;BME280;9226;47.858;9.594;2023-04-01T04:28:25;94114.72;;;7.15;83.56
18201;BME280;9226;47.858;9.594;2023-04-01T04:30:51;94119.28;;;7.13;83.11
18201;BME280;9226;47.858;9.594;2023-04-01T04:33:16;94127.22;;;7.13;82.85
18201;BME280;9226;47.858;9.594;2023-04-01T04:35:42;94121.06;;;7.13;82.98
18201;BME280;9226;47.858;9.594;2023-04-01T04:38:07;94127.75;;;7.17;82.82
18201;BME280;9226;47.858;9.594;2023-04-01T04:40:33;94121.66;;;7.26;82.68
18201;BME280;9226;47.858;9.594;2023-04-01T04:42:58;94117.91;;;7.19;82.03
18201;BME280;9226;47.858;9.594;2023-04-01T04:45:23;94127.50;;;7.20;81.81
18201;BME280;9226;47.858;9.594;2023-04-01T04:47:49;94123.31;;;7.27;81.91
18201;BME280;9226;47.858;9.594;2023-04-01T04:50:14;94130.28;;;7.28;81.19
18201;BME280;9226;47.858;9.594;2023-04-01T04:52:39;94129.84;;;7.23;80.68
18201;BME280;9226;47.858;9.594;2023-04-01T04:55:05;94129.03;;;7.32;80.81
18201;BME280;9226;47.858;9.594;2023-04-01T04:57:31;94124.84;;;7.20;80.35
18201;BME280;9226;47.858;9.594;2023-04-01T04:59:56;94136.09;;;7.22;80.92
18201;BME280;9226;47.858;9.594;2023-04-01T05:02:21;94130.66;;;7.14;80.89
18201;BME280;9226;47.858;9.594;2023-04-01T05:04:47;94130.81;;;7.22;80.11
18201;BME280;9226;47.858;9.594;2023-04-01T05:07:12;94133.56;;;7.11;81.19
18201;BME280;9226;47.858;9.594;2023-04-01T05:09:37;94132.34;;;7.15;81.19
18201;BME280;9226;47.858;9.594;2023-04-01T05:12:03;94127.22;;;7.23;80.95
18201;BME280;9226;47.858;9.594;2023-04-01T05:14:28;94141.63;;;7.19;81.22
18201;BME280;9226;47.858;9.594;2023-04-01T05:16:54;94140.41;;;7.23;81.13
18201;BME280;9226;47.858;9.594;2023-04-01T05:19:19;94153.00;;;7.19;80.87
18201;BME280;9226;47.858;9.594;2023-04-01T05:21:45;94152.19;;;7.19;82.14
18201;BME280;9226;47.858;9.594;2023-04-01T05:24:10;94140.81;;;7.28;81.05
18201;BME280;9226;47.858;9.594;2023-04-01T05:26:36;94138.84;;;7.11;81.50
18201;BME280;9226;47.858;9.594;2023-04-01T05:29:03;94133.03;;;7.17;81.06
18201;BME280;9226;47.858;9.594;2023-04-01T05:31:29;94128.19;;;7.22;80.93
18201;BME280;9226;47.858;9.594;2023-04-01T05:33:55;94135.78;;;7.05;80.79
18201;BME280;9226;47.858;9.594;2023-04-01T05:36:20;94138.03;;;7.20;80.85
18201;BME280;9226;47.858;9.594;2023-04-01T05:38:46;94137.78;;;7.33;80.35
18201;BME280;9226;47.858;9.594;2023-04-01T05:41:12;94140.56;;;7.31;80.30
18201;BME280;9226;47.858;9.594;2023-04-01T05:43:39;94143.88;;;7.33;80.43
18201;BME280;9226;47.858;9.594;2023-04-01T05:46:04;94140.28;;;7.34;79.85
18201;BME280;9226;47.858;9.594;2023-04-01T05:48:30;94148.47;;;7.31;80.15
18201;BME280;9226;47.858;9.594;2023-04-01T05:50:55;94148.88;;;7.36;80.33
18201;BME280;9226;47.858;9.594;2023-04-01T05:53:21;94146.94;;;7.38;80.82
18201;BME280;9226;47.858;9.594;2023-04-01T05:55:47;94147.78;;;7.49;79.86
18201;BME280;9226;47.858;9.594;2023-04-01T05:58:12;94151.97;;;7.61;79.86
18201;BME280;9226;47.858;9.594;2023-04-01T06:00:38;94147.78;;;7.68;79.33
18201;BME280;9226;47.858;9.594;2023-04-01T06:03:03;94150.84;;;7.54;80.29
18201;BME280;9226;47.858;9.594;2023-04-01T06:05:30;94144.31;;;7.48;80.32
18201;BME280;9226;47.858;9.594;2023-04-01T06:08:08;94145.56;;;7.54;80.50
18201;BME280;9226;47.858;9.594;2023-04-01T06:16:07;94143.91;;;7.72;79.61
18201;BME280;9226;47.858;9.594;2023-04-01T06:24:37;94150.69;;;7.94;77.81
18201;BME280;9226;47.858;9.594;2023-04-01T06:36:00;94169.47;;;7.82;77.28
18201;BME280;9226;47.858;9.594;2023-04-01T06:38:42;94161.13;;;7.86;76.38
18201;BME280;9226;47.858;9.594;2023-04-01T06:43:54;94149.59;;;7.97;76.56
18201;BME280;9226;47.858;9.594;2023-04-01T06:46:36;94155.41;;;8.01;76.86
18201;BME280;9226;47.858;9.594;2023-04-01T06:54:33;94127.41;;;8.47;74.40
18201;BME280;9226;47.858;9.594;2023-04-01T06:57:50;94129.53;;;8.99;74.00
18201;BME280;9226;47.858;9.594;2023-04-01T06:59:52;94121.66;;;9.71;72.74
18201;BME280;9226;47.858;9.594;2023-04-01T07:05:24;94124.78;;;10.55;66.01
18201;BME280;9226;47.858;9.594;2023-04-01T07:07:58;94139.47;;;10.67;64.85
18201;BME280;9226;47.858;9.594;2023-04-01T07:13:15;94125.03;;;10.17;65.77
18201;BME280;9226;47.858;9.594;2023-04-01T07:16:35;94126.69;;;10.18;66.39
18201;BME280;9226;47.858;9.594;2023-04-01T07:21:04;94118.97;;;10.25;66.14
18201;BME280;9226;47.858;9.594;2023-04-01T07:23:42;94124.78;;;10.28;66.89
18201;BME280;9226;47.858;9.594;2023-04-01T07:26:19;94120.59;;;10.00;66.35
18201;BME280;9226;47.858;9.594;2023-04-01T07:28:46;94125.97;;;10.08;66.26
18201;BME280;9226;47.858;9.594;2023-04-01T07:31:20;94118.19;;;9.88;66.54
18201;BME280;9226;47.858;9.594;2023-04-01T07:34:03;94132.25;;;10.07;66.32
18201;BME280;9226;47.858;9.594;2023-04-01T07:36:42;94136.25;;;10.11;66.84
18201;BME280;9226;47.858;9.594;2023-04-01T07:42:31;94152.25;;;10.27;67.17
18201;BME280;9226;47.858;9.594;2023-04-01T07:47:45;94142.56;;;10.62;66.01
18201;BME280;9226;47.858;9.594;2023-04-01T07:53:25;94150.75;;;10.43;64.79
18201;BME280;9226;47.858;9.594;2023-04-01T07:56:10;94149.66;;;10.54;64.77
18201;BME280;9226;47.858;9.594;2023-04-01T08:01:11;94151.69;;;10.16;64.96
18201;BME280;9226;47.858;9.594;2023-04-01T08:06:35;94151.78;;;10.06;65.85
18201;BME280;9226;47.858;9.594;2023-04-01T08:09:36;94145.78;;;10.04;65.43
18201;BME280;9226;47.858;9.594;2023-04-01T08:17:16;94143.69;;;10.07;66.49
18201;BME280;9226;47.858;9.594;2023-04-01T08:19:52;94149.88;;;10.16;65.48
18201;BME280;9226;47.858;9.594;2023-04-01T08:22:33;94134.44;;;10.11;65.92
18201;BME280;9226;47.858;9.594;2023-04-01T08:25:02;94153.34;;;10.17;66.01
18201;BME280;9226;47.858;9.594;2023-04-01T08:28:00;94150.59;;;9.82;67.08
18201;BME280;9226;47.858;9.594;2023-04-01T08:30:28;94146.41;;;9.98;66.49
18201;BME280;9226;47.858;9.594;2023-04-01T08:33:16;94147.41;;;9.96;66.42
18201;BME280;9226;47.858;9.594;2023-04-01T08:47:24;94140.66;;;9.84;67.92
18201;BME280;9226;47.858;9.594;2023-04-01T08:58:37;94149.72;;;10.18;67.75
18201;BME280;9226;47.858;9.594;2023-04-01T09:04:14;94151.91;;;10.22;67.41
18201;BME280;9226;47.858;9.594;2023-04-01T09:07:12;94152.09;;;10.03;67.07
18201;BME280;9226;47.858;9.594;2023-04-01T09:15:31;94146.03;;;9.92;67.60
18201;BME280;9226;47.858;9.594;2023-04-01T09:27:03;94168.88;;;10.29;66.80
18201;BME280;9226;47.858;9.594;2023-04-01T09:42:42;94150.34;;;9.57;68.26
18201;BME280;9226;47.858;9.594;2023-04-01T10:05:07;94177.94;;;9.37;70.27
18201;BME280;9226;47.858;9.594;2023-04-01T10:24:30;94169.31;;;9.35;71.92
18201;BME280;9226;47.858;9.594;2023-04-01T10:36:34;94180.00;;;9.43;72.76
18201;BME280;9226;47.858;9.594;2023-04-01T10:39:17;94178.25;;;9.52;72.74
18201;BME280;9226;47.858;9.594;2023-04-01T10:58:33;94166.47;;;10.00;70.85
18201;BME280;9226;47.858;9.594;2023-04-01T11:15:23;94169.19;;;10.26;70.32
18201;BME280;9226;47.858;9.594;2023-04-01T11:26:33;94161.38;;;10.25;70.63
18201;BME280;9226;47.858;9.594;2023-04-01T11:45:37;94176.91;;;10.64;69.26
18201;BME280;9226;47.858;9.594;2023-04-01T11:48:16;94180.13;;;10.76;69.29
18201;BME280;9226;47.858;9.594;2023-04-01T11:51:08;94177.53;;;10.84;69.91
18201;BME280;9226;47.858;9.594;2023-04-01T12:04:41;94175.34;;;10.79;68.02
18201;BME280;9226;47.858;9.594;2023-04-01T12:13:02;94189.56;;;11.04;67.50
18201;BME280;9226;47.858;9.594;2023-04-01T12:21:00;94191.81;;;11.26;67.48
18201;BME280;9226;47.858;9.594;2023-04-01T12:24:10;94194.09;;;11.12;67.51
18201;BME280;9226;47.858;9.594;2023-04-01T12:26:44;94189.84;;;11.28;68.13
18201;BME280;9226;47.858;9.594;2023-04-01T12:35:26;94194.41;;;11.44;65.26
18201;BME280;9226;47.858;9.594;2023-04-01T12:43:25;94201.75;;;11.58;65.33
18201;BME280;9226;47.858;9.594;2023-04-01T12:49:22;94186.13;;;11.55;63.85
18201;BME280;9226;47.858;9.594;2023-04-01T12:52:10;94196.75;;;11.55;64.47
18201;BME280;9226;47.858;9.594;2023-04-01T13:02:58;94208.06;;;11.65;64.49
18201;BME280;9226;47.858;9.594;2023-04-01T13:08:20;94211.97;;;11.45;64.89
18201;BME280;9226;47.858;9.594;2023-04-01T13:11:02;94202.34;;;11.35;65.15
18201;BME280;9226;47.858;9.594;2023-04-01T13:16:20;94200.91;;;11.57;64.69
18201;BME280;9226;47.858;9.594;2023-04-01T13:29:14;94216.09;;;11.90;61.23
18201;BME280;9226;47.858;9.594;2023-04-01T13:42:33;94215.69;;;11.68;61.59
18201;BME280;9226;47.858;9.594;2023-04-01T13:45:15;94217.72;;;11.74;61.35
18201;BME280;9226;47.858;9.594;2023-04-01T13:55:59;94227.59;;;11.48;61.67
18201;BME280;9226;47.858;9.594;2023-04-01T14:01:56;94223.41;;;11.37;62.18
18201;BME280;9226;47.858;9.594;2023-04-01T14:04:45;94212.59;;;11.38;62.07
18201;BME280;9226;47.858;9.594;2023-04-01T14:13:12;94219.31;;;11.16;63.70
18201;BME280;9226;47.858;9.594;2023-04-01T14:16:04;94227.13;;;11.18;63.09
18201;BME280;9226;47.858;9.594;2023-04-01T14:24:08;94224.34;;;10.93;64.19
18201;BME280;9226;47.858;9.594;2023-04-01T14:32:07;94229.22;;;10.80;64.48
18201;BME280;9226;47.858;9.594;2023-04-01T14:47:59;94223.09;;;10.53;66.35
18201;BME280;9226;47.858;9.594;2023-04-01T14:50:41;94225.50;;;10.64;66.40
18201;BME280;9226;47.858;9.594;2023-04-01T14:53:33;94226.63;;;10.62;66.99
18201;BME280;9226;47.858;9.594;2023-04-01T14:56:01;94229.13;;;10.63;66.73
18201;BME280;9226;47.858;9.594;2023-04-01T14:58:50;94223.50;;;10.66;66.20
18201;BME280;9226;47.858;9.594;2023-04-01T15:04:36;94227.03;;;10.75;66.40
18201;BME280;9226;47.858;9.594;2023-04-01T15:15:21;94236.41;;;10.88;66.16
18201;BME280;9226;47.858;9.594;2023-04-01T15:18:07;94230.69;;;10.74;66.38
18201;BME280;9226;47.858;9.594;2023-04-01T15:20:52;94236.47;;;10.70;66.67
18201;BME280;9226;47.858;9.594;2023-04-01T15:26:42;94239.88;;;10.62;66.44
18201;BME280;9226;47.858;9.594;2023-04-01T15:32:17;94242.94;;;10.49;67.12
18201;BME280;9226;47.858;9.594;2023-04-01T15:42:41;94235.81;;;10.31;66.45
18201;BME280;9226;47.858;9.594;2023-04-01T15:50:46;94235.00;;;10.31;67.18
18201;BME280;9226;47.858;9.594;2023-04-01T15:53:28;94245.53;;;10.41;67.14
18201;BME280;9226;47.858;9.594;2023-04-01T15:56:10;94245.22;;;10.44;67.22
18201;BME280;9226;47.858;9.594;2023-04-01T16:01:19;94246.97;;;10.35;68.11
18201;BME280;9226;47.858;9.594;2023-04-01T16:03:55;94255.19;;;10.32;67.91
18201;BME280;9226;47.858;9.594;2023-04-01T16:07:08;94255.66;;;10.27;68.13
18201;BME280;9226;47.858;9.594;2023-04-01T16:09:33;94247.56;;;10.11;68.04
18201;BME280;9226;47.858;9.594;2023-04-01T16:15:12;94258.53;;;10.16;68.64
18201;BME280;9226;47.858;9.594;2023-04-01T16:22:38;94232.47;;;10.11;68.25
18201;BME280;9226;47.858;9.594;2023-04-01T16:25:21;94232.25;;;10.23;68.23
18201;BME280;9226;47.858;9.594;2023-04-01T16:28:09;94233.88;;;10.34;67.12
18201;BME280;9226;47.858;9.594;2023-04-01T16:31:13;94237.84;;;10.20;66.74
18201;BME280;9226;47.858;9.594;2023-04-01T16:34:01;94233.72;;;10.35;66.27
18201;BME280;9226;47.858;9.594;2023-04-01T16:37:00;94239.22;;;10.42;65.98
18201;BME280;9226;47.858;9.594;2023-04-01T16:39:43;94233.56;;;10.37;66.01
18201;BME280;9226;47.858;9.594;2023-04-01T16:47:49;94241.41;;;10.28;65.37
18201;BME280;9226;47.858;9.594;2023-04-01T16:50:22;94248.84;;;10.43;65.14
18201;BME280;9226;47.858;9.594;2023-04-01T16:55:19;94267.09;;;10.28;65.76
18201;BME280;9226;47.858;9.594;2023-04-01T16:57:57;94253.91;;;10.18;65.81
18201;BME280;9226;47.858;9.594;2023-04-01T17:00:38;94266.09;;;10.11;66.36
18201;BME280;9226;47.858;9.594;2023-04-01T17:03:14;94266.63;;;9.96;66.66
18201;BME280;9226;47.858;9.594;2023-04-01T17:11:18;94271.53;;;9.91;66.71
18201;BME280;9226;47.858;9.594;2023-04-01T17:13:46;94273.06;;;9.94;66.75
18201;BME280;9226;47.858;9.594;2023-04-01T17:16:28;94266.78;;;9.95;66.66
18201;BME280;9226;47.858;9.594;2023-04-01T17:19:13;94275.78;;;9.84;66.96
18201;BME280;9226;47.858;9.594;2023-04-01T17:27:24;94269.28;;;9.69;67.12
18201;BME280;9226;47.858;9.594;2023-04-01T17:30:08;94275.28;;;9.71;67.16
18201;BME280;9226;47.858;9.594;2023-04-01T17:33:00;94275.19;;;9.63;67.46
18201;BME280;9226;47.858;9.594;2023-04-01T17:35:55;94282.22;;;9.54;67.86
18201;BME280;9226;47.858;9.594;2023-04-01T17:54:35;94293.63;;;9.27;68.46
18201;BME280;9226;47.858;9.594;2023-04-01T18:05:43;94299.34;;;9.12;68.82
18201;BME280;9226;47.858;9.594;2023-04-01T18:08:38;94302.56;;;9.06;69.14
18201;BME280;9226;47.858;9.594;2023-04-01T18:11:15;94302.56;;;9.06;69.00
18201;BME280;9226;47.858;9.594;2023-04-01T18:16:49;94307.75;;;8.98;69.39
18201;BME280;9226;47.858;9.594;2023-04-01T18:21:47;94315.00;;;8.96;69.65
18201;BME280;9226;47.858;9.594;2023-04-01T18:24:26;94315.72;;;8.78;70.32
18201;BME280;9226;47.858;9.594;2023-04-01T18:27:06;94313.78;;;8.80;70.36
18201;BME280;9226;47.858;9.594;2023-04-01T18:32:44;94322.56;;;8.61;71.61
18201;BME280;9226;47.858;9.594;2023-04-01T18:38:15;94325.19;;;8.71;71.05
18201;BME280;9226;47.858;9.594;2023-04-01T18:40:43;94335.63;;;8.63;71.28
18201;BME280;9226;47.858;9.594;2023-04-01T18:43:19;94331.63;;;8.59;71.38
18201;BME280;9226;47.858;9.594;2023-04-01T18:45:54;94343.59;;;8.53;72.43
18201;BME280;9226;47.858;9.594;2023-04-01T18:51:34;94339.97;;;8.64;71.47
18201;BME280;9226;47.858;9.594;2023-04-01T18:54:13;94350.53;;;8.54;72.25
18201;BME280;9226;47.858;9.594;2023-04-01T18:56:43;94354.97;;;8.54;72.25
18201;BME280;9226;47.858;9.594;2023-04-01T18:59:16;94353.47;;;8.61;71.81
18201;BME280;9226;47.858;9.594;2023-04-01T19:05:04;94362.09;;;8.53;72.61
18201;BME280;9226;47.858;9.594;2023-04-01T19:10:13;94366.00;;;8.59;72.08
18201;BME280;9226;47.858;9.594;2023-04-01T19:15:39;94363.56;;;8.36;73.53
18201;BME280;9226;47.858;9.594;2023-04-01T19:21:19;94372.31;;;8.27;74.15
18201;BME280;9226;47.858;9.594;2023-04-01T19:26:36;94374.13;;;8.36;73.90
18201;BME280;9226;47.858;9.594;2023-04-01T19:43:30;94376.75;;;8.07;75.63
18201;BME280;9226;47.858;9.594;2023-04-01T19:51:13;94382.41;;;7.92;76.29
18201;BME280;9226;47.858;9.594;2023-04-01T19:53:52;94389.47;;;7.92;76.45
18201;BME280;9226;47.858;9.594;2023-04-01T19:56:35;94390.88;;;7.86;76.98
18201;BME280;9226;47.858;9.594;2023-04-01T19:59:25;94390.28;;;7.83;77.34
18201;BME280;9226;47.858;9.594;2023-04-01T20:02:19;94389.47;;;7.92;76.34
18201;BME280;9226;47.858;9.594;2023-04-01T20:04:55;94388.78;;;7.90;76.62
18201;BME280;9226;47.858;9.594;2023-04-01T20:07:43;94383.06;;;7.75;77.84
18201;BME280;9226;47.858;9.594;2023-04-01T20:15:54;94394.00;;;7.70;78.50
18201;BME280;9226;47.858;9.594;2023-04-01T20:18:34;94408.16;;;7.69;78.65
18201;BME280;9226;47.858;9.594;2023-04-01T20:23:50;94398.19;;;7.83;77.64
18201;BME280;9226;47.858;9.594;2023-04-01T20:26:25;94407.38;;;7.78;77.81
18201;BME280;9226;47.858;9.594;2023-04-01T20:37:35;94422.06;;;7.71;77.89
18201;BME280;9226;47.858;9.594;2023-04-01T20:45:33;94429.19;;;7.81;77.52
18201;BME280;9226;47.858;9.594;2023-04-01T20:51:09;94429.88;;;7.83;77.14
18201;BME280;9226;47.858;9.594;2023-04-01T20:58:55;94436.50;;;7.67;77.69
18201;BME280;9226;47.858;9.594;2023-04-01T21:01:47;94437.00;;;7.51;78.45
18201;BME280;9226;47.858;9.594;2023-04-01T21:07:38;94431.25;;;7.46;78.43
18201;BME280;9226;47.858;9.594;2023-04-01T21:10:33;94440.28;;;7.43;78.52
18201;BME280;9226;47.858;9.594;2023-04-01T21:13:06;94442.53;;;7.48;78.27
18201;BME280;9226;47.858;9.594;2023-04-01T21:23:56;94454.19;;;7.24;78.63
18201;BME280;9226;47.858;9.594;2023-04-01T21:35:10;94454.56;;;7.20;78.29
18201;BME280;9226;47.858;9.594;2023-04-01T21:40:56;94467.56;;;7.12;79.04
18201;BME280;9226;47.858;9.594;2023-04-01T22:10:45;94474.38;;;6.93;79.17
18201;BME280;9226;47.858;9.594;2023-04-01T22:13:49;94481.56;;;6.91;79.33
18201;BME280;9226;47.858;9.594;2023-04-01T22:32:14;94482.78;;;6.87;79.83
18201;BME280;9226;47.858;9.594;2023-04-01T22:35:01;94483.72;;;6.86;80.17
18201;BME280;9226;47.858;9.594;2023-04-01T22:40:47;94487.34;;;6.85;80.13
18201;BME280;9226;47.858;9.594;2023-04-01T22:43:36;94488.63;;;6.91;79.58
18201;BME280;9226;47.858;9.594;2023-04-01T22:51:39;94497.66;;;6.88;79.49
18201;BME280;9226;47.858;9.594;2023-04-01T22:56:57;94498.28;;;6.80;79.98
18201;BME280;9226;47.858;9.594;2023-04-01T23:02:02;94508.31;;;6.75;80.66
18201;BME280;9226;47.858;9.594;2023-04-01T23:04:34;94503.41;;;6.82;80.21
18201;BME280;9226;47.858;9.594;2023-04-01T23:07:19;94507.50;;;6.75;80.64
18201;BME280;9226;47.858;9.594;2023-04-01T23:09:48;94506.88;;;6.82;80.29
18201;BME280;9226;47.858;9.594;2023-04-01T23:12:15;94503.44;;;6.70;80.75
18201;BME280;9226;47.858;9.594;2023-04-01T23:14:46;94507.50;;;6.75;81.11
18201;BME280;9226;47.858;9.594;2023-04-01T23:20:17;94501.41;;;6.74;80.72
18201;BME280;9226;47.858;9.594;2023-04-01T23:23:26;94514.47;;;6.76;80.67
18201;BME280;9226;47.858;9.594;2023-04-01T23:26:25;94521.66;;;6.74;80.62
18201;BME280;9226;47.858;9.594;2023-04-01T23:28:56;94518.38;;;6.81;79.78
18201;BME280;9226;47.858;9.594;2023-04-01T23:31:31;94523.31;;;6.75;80.71
18201;BME280;9226;47.858;9.594;2023-04-01T23:34:27;94523.91;;;6.78;79.94
18201;BME280;9226;47.858;9.594;2023-04-01T23:36:58;94519.28;;;6.70;80.83
18201;BME280;9226;47.858;9.594;2023-04-01T23:39:30;94521.25;;;6.78;80.18
18201;BME280;9226;47.858;9.594;2023-04-01T23:42:01;94518.63;;;6.78;79.75
18201;BME280;9226;47.858;9.594;2023-04-01T23:44:28;94522.16;;;6.67;80.95
18201;BME280;9226;47.858;9.594;2023-04-01T23:46:55;94526.44;;;6.68;80.92